Time;durP1;ratioP1;P1;durP2;ratioP2;P2;SDS_P1;SDS_P2;PMS_P1;PMS_P2;Temp;Humidity;BMP_temperature;BMP_pressure;BME280_temperature;BME280_humidity;BME280_pressure;Samples;Min_cycle;Max_cycle;Signal;HPM_P1;HPM_P2
2022/03/30 00:00:14;;;;;;;27.87;18.63;;;;;;;;;;4932260;29;20484;-89
2022/03/30 00:03:20;;;;;;;23.10;18.50;;;;;;;;;;4925738;29;20468;-89
2022/03/30 00:06:26;;;;;;;24.87;18.10;;;;;;;;;;4905975;29;20419;-89
2022/03/30 00:09:32;;;;;;;26.00;16.93;;;;;;;;;;4910957;29;20477;-89
2022/03/30 00:12:38;;;;;;;28.20;18.27;;;;;;;;;;4910979;29;20428;-90
2022/03/30 00:15:44;;;;;;;28.77;17.77;;;;;;;;;;4911542;29;20507;-89
2022/03/30 00:18:50;;;;;;;32.90;17.60;;;;;;;;;;4898103;29;20441;-89
2022/03/30 00:21:55;;;;;;;26.53;17.67;;;;;;;;;;4906296;29;20482;-89
2022/03/30 00:25:01;;;;;;;29.00;19.27;;;;;;;;;;4907202;29;20424;-89
2022/03/30 00:28:08;;;;;;;25.70;18.57;;;;;;;;;;4905717;29;20463;-89
2022/03/30 00:31:13;;;;;;;28.30;18.67;;;;;;;;;;4912754;29;20495;-89
2022/03/30 00:34:19;;;;;;;23.70;17.37;;;;;;;;;;4915079;29;20455;-89
2022/03/30 00:37:25;;;;;;;27.40;17.87;;;;;;;;;;4909865;29;20432;-89
2022/03/30 00:40:31;;;;;;;35.87;18.23;;;;;;;;;;4912196;29;20483;-89
2022/03/30 00:43:37;;;;;;;25.13;17.10;;;;;;;;;;4895673;29;20484;-89
2022/03/30 00:46:38;;;;;;;23.70;17.20;;;;;;;;;;4934083;29;20869;-91
2022/03/30 00:49:09;;;;;;;26.30;19.20;;;;;;;;;;4942965;29;20404;-93
2022/03/30 00:51:43;;;;;;;21.33;17.50;;;;;;;;;;4925034;29;20488;-92
2022/03/30 00:54:16;;;;;;;28.47;19.20;;;;;;;;;;4915911;29;20469;-92
2022/03/30 00:56:46;;;;;;;28.50;17.63;;;;;;;;;;4900253;29;20425;-93
2022/03/30 00:59:15;;;;;;;36.13;18.23;;;;;;;;;;4925171;29;20511;-93
2022/03/30 01:01:42;;;;;;;29.60;19.13;;;;;;;;;;4914122;29;20736;-92
2022/03/30 01:04:08;;;;;;;26.67;17.73;;;;;;;;;;4917368;29;20967;-94
2022/03/30 01:06:45;;;;;;;30.93;19.03;;;;;;;;;;4940479;29;20921;-95
2022/03/30 01:09:12;;;;;;;22.20;17.53;;;;;;;;;;4913511;29;20759;-94
2022/03/30 01:11:42;;;;;;;24.33;17.50;;;;;;;;;;4897293;29;20437;-92
2022/03/30 01:14:09;;;;;;;28.97;19.57;;;;;;;;;;4918377;29;20427;-93
2022/03/30 01:16:36;;;;;;;29.90;18.10;;;;;;;;;;4925671;29;20435;-93
2022/03/30 01:19:06;;;;;;;31.73;18.10;;;;;;;;;;4933359;29;20436;-92
2022/03/30 01:21:33;;;;;;;29.87;19.20;;;;;;;;;;4901169;29;20475;-93
2022/03/30 01:24:01;;;;;;;30.13;17.20;;;;;;;;;;4916117;29;20416;-93
2022/03/30 01:26:29;;;;;;;31.07;18.20;;;;;;;;;;4899009;29;20437;-93
2022/03/30 01:34:49;;;;;;;28.47;18.17;;;;;;;;;;4915340;29;20546;-88
2022/03/30 01:37:15;;;;;;;29.10;19.23;;;;;;;;;;4898912;29;20439;-88
2022/03/30 01:39:42;;;;;;;30.73;20.23;;;;;;;;;;4914549;23;20503;-84
2022/03/30 01:42:08;;;;;;;43.20;17.90;;;;;;;;;;4895512;29;20523;-83
2022/03/30 01:44:36;;;;;;;29.13;18.40;;;;;;;;;;4896768;29;20437;-83
2022/03/30 01:47:02;;;;;;;31.20;20.13;;;;;;;;;;4875154;29;20450;-84
2022/03/30 01:49:28;;;;;;;31.90;18.10;;;;;;;;;;4879634;29;20432;-83
2022/03/30 01:51:55;;;;;;;30.83;19.47;;;;;;;;;;4892182;29;20425;-83
2022/03/30 01:54:22;;;;;;;29.53;17.70;;;;;;;;;;4889351;29;20555;-83
2022/03/30 01:56:49;;;;;;;30.97;20.30;;;;;;;;;;4876154;29;20424;-83
2022/03/30 01:59:16;;;;;;;29.47;19.37;;;;;;;;;;4892220;29;20488;-82
2022/03/30 02:01:42;;;;;;;29.63;17.60;;;;;;;;;;4892048;29;20912;-83
2022/03/30 02:04:08;;;;;;;30.13;19.77;;;;;;;;;;4889544;29;20961;-82
2022/03/30 02:06:34;;;;;;;32.60;20.40;;;;;;;;;;4893422;29;20469;-83
2022/03/30 02:09:00;;;;;;;33.33;19.87;;;;;;;;;;4891284;29;20749;-82
2022/03/30 02:11:26;;;;;;;30.33;19.00;;;;;;;;;;4891694;29;20445;-83
2022/03/30 02:13:53;;;;;;;32.80;19.07;;;;;;;;;;4884480;29;20427;-82
2022/03/30 02:16:19;;;;;;;27.80;18.63;;;;;;;;;;4874253;29;20421;-83
2022/03/30 02:18:46;;;;;;;27.90;18.77;;;;;;;;;;4872316;29;20469;-83
2022/03/30 02:21:12;;;;;;;29.90;18.70;;;;;;;;;;4889672;29;20491;-83
2022/03/30 02:23:39;;;;;;;31.20;19.10;;;;;;;;;;4884116;29;20913;-82
2022/03/30 02:26:05;;;;;;;32.90;18.70;;;;;;;;;;4885369;29;20413;-82
2022/03/30 02:28:31;;;;;;;33.07;19.73;;;;;;;;;;4891026;29;20784;-82
2022/03/30 02:30:57;;;;;;;30.97;19.40;;;;;;;;;;4884699;29;20429;-82
2022/03/30 02:33:23;;;;;;;27.60;18.30;;;;;;;;;;4901150;29;20468;-82
2022/03/30 02:35:49;;;;;;;28.60;18.60;;;;;;;;;;4903424;29;21275;-82
2022/03/30 02:38:16;;;;;;;28.27;18.57;;;;;;;;;;4898733;29;20938;-82
2022/03/30 02:40:42;;;;;;;34.37;20.57;;;;;;;;;;4900667;29;20483;-82
2022/03/30 02:43:09;;;;;;;27.70;18.07;;;;;;;;;;4903411;29;20424;-82
2022/03/30 02:45:35;;;;;;;35.10;20.40;;;;;;;;;;4901999;29;20420;-82
2022/03/30 02:48:19;;;;;;;37.20;19.13;;;;;;;;;;4900089;29;20424;-82
2022/03/30 02:50:49;;;;;;;33.60;19.87;;;;;;;;;;4902478;29;20467;-82
2022/03/30 02:53:15;;;;;;;33.67;20.63;;;;;;;;;;4900216;29;20446;-83
2022/03/30 02:55:41;;;;;;;31.07;19.97;;;;;;;;;;4905160;29;20843;-83
2022/03/30 02:58:08;;;;;;;30.80;20.23;;;;;;;;;;4908368;29;20408;-83
2022/03/30 03:00:35;;;;;;;30.63;18.93;;;;;;;;;;4892367;29;20471;-82
2022/03/30 03:03:02;;;;;;;34.33;20.13;;;;;;;;;;4873858;29;20429;-82
2022/03/30 03:05:31;;;;;;;31.07;18.77;;;;;;;;;;4892535;29;20827;-83
2022/03/30 03:08:01;;;;;;;38.97;20.83;;;;;;;;;;4891472;29;20531;-82
2022/03/30 03:10:27;;;;;;;30.53;20.80;;;;;;;;;;4892335;29;20561;-82
2022/03/30 03:12:54;;;;;;;34.47;18.40;;;;;;;;;;4892005;29;20425;-82
2022/03/30 03:15:20;;;;;;;32.60;20.53;;;;;;;;;;4909016;29;20440;-82
2022/03/30 03:17:46;;;;;;;33.93;18.20;;;;;;;;;;4911163;29;20779;-82
2022/03/30 03:20:13;;;;;;;31.80;20.80;;;;;;;;;;4906663;29;20475;-82
2022/03/30 03:22:39;;;;;;;39.03;19.90;;;;;;;;;;4912130;29;20699;-83
2022/03/30 03:25:05;;;;;;;28.53;19.90;;;;;;;;;;4892997;29;20196;-82
2022/03/30 03:27:32;;;;;;;37.63;21.38;;;;;;;;;;4892108;29;20425;-82
2022/03/30 03:29:58;;;;;;;42.20;22.30;;;;;;;;;;4897408;29;20617;-82
2022/03/30 03:32:24;;;;;;;30.43;17.97;;;;;;;;;;4908632;29;20733;-82
2022/03/30 03:34:50;;;;;;;37.60;20.15;;;;;;;;;;4907215;29;20560;-82
2022/03/30 03:37:16;;;;;;;36.13;20.33;;;;;;;;;;4910898;29;20543;-82
2022/03/30 03:39:42;;;;;;;32.37;19.80;;;;;;;;;;4907630;29;20876;-82
2022/03/30 03:42:08;;;;;;;34.10;20.30;;;;;;;;;;4895397;29;20440;-82
2022/03/30 03:44:34;;;;;;;32.43;18.60;;;;;;;;;;4906572;29;20971;-82
2022/03/30 03:47:00;;;;;;;37.43;19.60;;;;;;;;;;4907473;29;20491;-82
2022/03/30 03:49:26;;;;;;;30.80;19.87;;;;;;;;;;4902942;29;20441;-83
2022/03/30 03:51:52;;;;;;;31.17;19.50;;;;;;;;;;4903570;29;20526;-83
2022/03/30 03:54:18;;;;;;;38.47;20.10;;;;;;;;;;4561255;29;9999762;-81
2022/03/30 03:56:45;;;;;;;37.07;20.50;;;;;;;;;;4901187;29;20606;-82
2022/03/30 03:59:11;;;;;;;29.60;17.10;;;;;;;;;;4909008;29;20451;-82
2022/03/30 04:01:37;;;;;;;32.60;18.27;;;;;;;;;;4917871;29;20508;-82
2022/03/30 04:04:05;;;;;;;31.33;19.20;;;;;;;;;;4899408;29;20543;-82
2022/03/30 04:06:31;;;;;;;37.80;20.73;;;;;;;;;;4912025;29;20502;-82
2022/03/30 04:08:57;;;;;;;30.00;18.73;;;;;;;;;;4901078;29;20433;-82
2022/03/30 04:11:23;;;;;;;40.53;17.33;;;;;;;;;;4904425;29;20448;-82
2022/03/30 04:13:52;;;;;;;26.63;16.60;;;;;;;;;;4903730;29;20444;-83
2022/03/30 04:16:18;;;;;;;39.57;19.43;;;;;;;;;;4914182;29;20428;-83
2022/03/30 04:18:44;;;;;;;33.53;17.70;;;;;;;;;;4900247;29;20535;-82
2022/03/30 04:21:11;;;;;;;31.97;20.50;;;;;;;;;;4902452;29;20465;-82
2022/03/30 04:23:37;;;;;;;30.47;18.70;;;;;;;;;;4903186;29;20447;-82
2022/03/30 04:26:03;;;;;;;28.90;17.57;;;;;;;;;;4896461;29;20448;-81
2022/03/30 04:28:29;;;;;;;31.53;17.40;;;;;;;;;;4919848;29;20444;-82
2022/03/30 04:30:55;;;;;;;28.63;17.60;;;;;;;;;;4909398;29;20883;-82
2022/03/30 04:33:21;;;;;;;50.13;19.83;;;;;;;;;;4898364;29;20432;-82
2022/03/30 04:35:47;;;;;;;31.03;18.57;;;;;;;;;;4924109;29;20471;-81
2022/03/30 04:38:14;;;;;;;30.07;18.90;;;;;;;;;;4917839;29;20443;-82
2022/03/30 04:40:40;;;;;;;31.50;19.20;;;;;;;;;;4920641;29;20499;-82
2022/03/30 04:43:06;;;;;;;38.03;18.27;;;;;;;;;;4893489;29;20816;-83
2022/03/30 04:45:32;;;;;;;31.97;18.40;;;;;;;;;;4899996;29;20960;-83
2022/03/30 04:47:59;;;;;;;31.47;18.80;;;;;;;;;;4911957;29;20523;-83
2022/03/30 04:50:25;;;;;;;32.00;20.03;;;;;;;;;;4893321;29;20490;-81
2022/03/30 04:52:52;;;;;;;40.60;20.27;;;;;;;;;;4916922;29;20435;-82
2022/03/30 04:55:19;;;;;;;31.63;18.27;;;;;;;;;;4897244;29;20431;-82
2022/03/30 04:57:45;;;;;;;35.93;19.10;;;;;;;;;;4912117;29;20412;-79
2022/03/30 05:00:12;;;;;;;38.13;20.15;;;;;;;;;;4894717;29;20487;-81
2022/03/30 05:02:39;;;;;;;30.75;17.60;;;;;;;;;;4905149;29;20200;-82
2022/03/30 05:05:06;;;;;;;29.70;20.43;;;;;;;;;;4895024;29;20210;-81
2022/03/30 05:07:32;;;;;;;33.17;20.80;;;;;;;;;;4921837;29;20876;-82
2022/03/30 05:09:59;;;;;;;35.20;20.17;;;;;;;;;;4901367;29;20543;-83
2022/03/30 05:12:25;;;;;;;46.40;19.17;;;;;;;;;;4902502;29;20427;-83
2022/03/30 05:14:51;;;;;;;31.63;19.17;;;;;;;;;;4902518;29;20215;-79
2022/03/30 05:17:17;;;;;;;33.73;19.77;;;;;;;;;;4918009;29;20611;-81
2022/03/30 05:19:44;;;;;;;34.15;19.88;;;;;;;;;;4904630;29;20784;-82
2022/03/30 05:22:10;;;;;;;41.53;20.73;;;;;;;;;;4903284;29;20192;-80
2022/03/30 05:24:37;;;;;;;39.93;20.43;;;;;;;;;;4923691;29;20439;-82
2022/03/30 05:27:03;;;;;;;36.77;19.17;;;;;;;;;;4919573;29;20478;-83
2022/03/30 05:29:29;;;;;;;39.33;19.50;;;;;;;;;;4919745;29;20871;-82
2022/03/30 05:31:55;;;;;;;38.43;20.00;;;;;;;;;;4928139;29;20450;-83
2022/03/30 05:34:21;;;;;;;32.53;20.95;;;;;;;;;;4932580;29;20438;-85
2022/03/30 05:36:48;;;;;;;33.07;19.67;;;;;;;;;;4918209;29;20192;-83
2022/03/30 05:39:14;;;;;;;39.10;20.40;;;;;;;;;;4922613;29;20455;-83
2022/03/30 05:41:40;;;;;;;33.23;19.50;;;;;;;;;;4920713;29;20616;-83
2022/03/30 05:44:06;;;;;;;36.27;21.30;;;;;;;;;;4908574;29;20444;-82
2022/03/30 05:46:32;;;;;;;32.67;20.60;;;;;;;;;;4896806;29;20979;-84
2022/03/30 05:48:58;;;;;;;37.03;20.13;;;;;;;;;;4930696;29;20506;-85
2022/03/30 05:51:24;;;;;;;39.90;20.73;;;;;;;;;;4914110;29;20428;-83
2022/03/30 05:53:51;;;;;;;31.27;19.00;;;;;;;;;;4925047;29;20452;-82
2022/03/30 05:56:17;;;;;;;39.00;21.07;;;;;;;;;;4894730;29;20485;-82
2022/03/30 05:58:43;;;;;;;42.23;20.03;;;;;;;;;;4898942;29;20426;-84
2022/03/30 06:01:09;;;;;;;35.77;20.73;;;;;;;;;;4917808;29;20562;-83
2022/03/30 06:03:37;;;;;;;44.60;20.10;;;;;;;;;;4905754;29;20535;-83
2022/03/30 06:06:07;;;;;;;38.07;19.50;;;;;;;;;;4895744;29;20421;-84
2022/03/30 06:08:34;;;;;;;35.03;19.80;;;;;;;;;;4920870;29;20432;-81
2022/03/30 06:11:00;;;;;;;48.80;20.40;;;;;;;;;;4915126;29;20421;-81
2022/03/30 06:13:26;;;;;;;29.45;18.73;;;;;;;;;;4891026;29;20829;-83
2022/03/30 06:15:53;;;;;;;37.37;22.07;;;;;;;;;;4903595;29;20667;-84
2022/03/30 06:18:19;;;;;;;38.77;21.30;;;;;;;;;;4906739;29;20803;-83
2022/03/30 06:20:45;;;;;;;35.93;20.23;;;;;;;;;;4923130;29;21014;-82
2022/03/30 06:23:11;;;;;;;31.30;21.43;;;;;;;;;;4908408;29;20740;-82
2022/03/30 06:25:37;;;;;;;29.37;19.73;;;;;;;;;;4900276;29;20812;-82
2022/03/30 06:28:04;;;;;;;43.90;21.00;;;;;;;;;;4921169;29;20443;-82
2022/03/30 06:30:30;;;;;;;38.20;21.90;;;;;;;;;;4898288;29;20460;-83
2022/03/30 06:32:56;;;;;;;31.50;19.50;;;;;;;;;;4920889;29;21118;-82
2022/03/30 06:35:23;;;;;;;26.27;18.53;;;;;;;;;;4901477;29;20440;-80
2022/03/30 06:37:49;;;;;;;27.23;19.00;;;;;;;;;;4910447;29;20813;-83
2022/03/30 06:40:17;;;;;;;36.17;20.73;;;;;;;;;;4901294;29;20480;-83
2022/03/30 06:42:44;;;;;;;38.07;20.60;;;;;;;;;;4904923;29;20436;-82
2022/03/30 06:45:11;;;;;;;29.90;19.20;;;;;;;;;;4903990;29;20451;-83
2022/03/30 06:47:37;;;;;;;33.50;21.30;;;;;;;;;;4904454;29;20428;-78
2022/03/30 06:50:03;;;;;;;41.13;18.80;;;;;;;;;;4908345;29;20504;-83
2022/03/30 06:52:32;;;;;;;28.10;19.20;;;;;;;;;;4908267;29;20443;-82
2022/03/30 06:54:59;;;;;;;28.07;18.87;;;;;;;;;;4913635;29;20451;-79
2022/03/30 06:57:26;;;;;;;34.00;19.90;;;;;;;;;;4921610;29;20432;-83
2022/03/30 06:59:52;;;;;;;28.97;18.53;;;;;;;;;;4912768;29;20460;-85
2022/03/30 07:02:18;;;;;;;30.97;19.73;;;;;;;;;;4939810;29;20475;-82
2022/03/30 07:04:44;;;;;;;30.50;18.10;;;;;;;;;;4926283;29;20439;-85
2022/03/30 07:12:39;;;;;;;29.30;19.50;;;;;;;;;;4926774;29;20769;-83
2022/03/30 07:15:05;;;;;;;24.93;17.53;;;;;;;;;;4570078;29;10000966;-82
2022/03/30 07:17:33;;;;;;;21.90;17.97;;;;;;;;;;4913849;29;20433;-82
2022/03/30 07:19:59;;;;;;;29.00;18.50;;;;;;;;;;4907309;29;20789;-82
2022/03/30 07:22:25;;;;;;;51.57;46.43;;;;;;;;;;4903397;29;20533;-81
2022/03/30 07:24:51;;;;;;;27.00;18.30;;;;;;;;;;4905270;29;20460;-81
2022/03/30 07:27:17;;;;;;;25.13;18.40;;;;;;;;;;4908608;29;20448;-82
2022/03/30 07:29:43;;;;;;;27.07;19.13;;;;;;;;;;4902949;29;20444;-82
2022/03/30 07:32:09;;;;;;;27.53;19.13;;;;;;;;;;4889447;29;20982;-83
2022/03/30 07:34:36;;;;;;;28.33;19.80;;;;;;;;;;4897187;29;20456;-82
2022/03/30 07:37:03;;;;;;;25.50;18.33;;;;;;;;;;4916279;29;20857;-81
2022/03/30 07:39:29;;;;;;;37.03;18.87;;;;;;;;;;4908464;29;20506;-82
2022/03/30 07:41:55;;;;;;;24.37;19.27;;;;;;;;;;4896007;29;20487;-82
2022/03/30 07:44:21;;;;;;;28.77;19.80;;;;;;;;;;4904189;29;20449;-82
2022/03/30 07:46:48;;;;;;;32.80;21.10;;;;;;;;;;4918488;29;20435;-81
2022/03/30 07:49:15;;;;;;;32.97;20.97;;;;;;;;;;4900733;29;20998;-80
2022/03/30 07:51:41;;;;;;;25.83;20.00;;;;;;;;;;4908278;29;20574;-80
2022/03/30 07:54:10;;;;;;;31.73;21.20;;;;;;;;;;4923308;29;20965;-80
2022/03/30 07:56:37;;;;;;;26.60;20.80;;;;;;;;;;4918705;29;20983;-82
2022/03/30 07:59:03;;;;;;;24.30;20.43;;;;;;;;;;4910779;29;20462;-81
2022/03/30 08:01:29;;;;;;;32.00;20.83;;;;;;;;;;4917552;29;20479;-80
2022/03/30 08:03:56;;;;;;;27.00;19.17;;;;;;;;;;4910217;29;21039;-81
2022/03/30 08:06:22;;;;;;;30.77;20.80;;;;;;;;;;4906783;29;20460;-83
2022/03/30 08:08:52;;;;;;;30.03;20.57;;;;;;;;;;4914120;29;20519;-82
2022/03/30 08:11:18;;;;;;;30.13;20.83;;;;;;;;;;4924553;29;20443;-82
2022/03/30 08:13:44;;;;;;;27.63;19.80;;;;;;;;;;4902381;29;20452;-81
2022/03/30 08:16:10;;;;;;;25.87;19.30;;;;;;;;;;4922974;29;20453;-84
2022/03/30 08:18:36;;;;;;;25.70;19.70;;;;;;;;;;4917901;29;20438;-83
2022/03/30 08:23:47;;;;;;;29.93;18.30;;;;;;;;;;4936739;29;20469;-83
2022/03/30 08:26:13;;;;;;;27.60;17.60;;;;;;;;;;4901264;29;20516;-84
2022/03/30 08:28:39;;;;;;;26.17;18.30;;;;;;;;;;4931523;29;20447;-84
2022/03/30 08:31:05;;;;;;;25.67;19.00;;;;;;;;;;4923216;29;20456;-85
2022/03/30 08:33:31;;;;;;;40.00;20.20;;;;;;;;;;4938836;29;20522;-84
2022/03/30 08:35:57;;;;;;;25.63;19.40;;;;;;;;;;4914441;29;20460;-82
2022/03/30 08:38:23;;;;;;;24.03;17.37;;;;;;;;;;4932114;29;20661;-83
2022/03/30 08:40:51;;;;;;;22.77;17.17;;;;;;;;;;4913318;29;20495;-81
2022/03/30 08:43:18;;;;;;;32.23;18.43;;;;;;;;;;4909304;29;20428;-82
2022/03/30 08:45:44;;;;;;;28.40;17.73;;;;;;;;;;4894311;29;20440;-80
2022/03/30 08:48:10;;;;;;;23.80;18.27;;;;;;;;;;4913452;29;20490;-82
2022/03/30 08:50:36;;;;;;;20.40;17.63;;;;;;;;;;4903203;29;20419;-81
2022/03/30 08:53:04;;;;;;;19.53;17.13;;;;;;;;;;4904667;29;20507;-82
2022/03/30 08:55:31;;;;;;;18.30;15.60;;;;;;;;;;4900327;29;20747;-82
2022/03/30 08:57:57;;;;;;;21.67;16.20;;;;;;;;;;4894723;29;20689;-82
2022/03/30 09:00:23;;;;;;;20.10;15.17;;;;;;;;;;4903953;29;20476;-82
2022/03/30 09:03:00;;;;;;;17.57;15.07;;;;;;;;;;4908519;29;20904;-80
2022/03/30 09:05:31;;;;;;;19.73;17.60;;;;;;;;;;4903311;29;20956;-83
2022/03/30 09:08:12;;;;;;;19.87;16.13;;;;;;;;;;4903380;29;20836;-82
2022/03/30 09:10:39;;;;;;;19.50;15.93;;;;;;;;;;4904746;29;20412;-82
2022/03/30 09:13:07;;;;;;;22.93;15.60;;;;;;;;;;4905433;29;20437;-82
2022/03/30 09:15:33;;;;;;;17.30;15.37;;;;;;;;;;4916726;29;20474;-84
2022/03/30 09:18:00;;;;;;;18.80;15.10;;;;;;;;;;4571363;29;9999954;-82
2022/03/30 09:20:27;;;;;;;17.20;15.40;;;;;;;;;;4907135;29;20220;-83
2022/03/30 09:22:57;;;;;;;23.10;15.70;;;;;;;;;;4902533;29;20496;-80
2022/03/30 09:25:23;;;;;;;17.20;14.20;;;;;;;;;;4895381;29;20413;-83
2022/03/30 09:27:52;;;;;;;19.73;14.23;;;;;;;;;;4908916;29;20452;-83
2022/03/30 09:30:19;;;;;;;21.03;14.87;;;;;;;;;;4895889;29;20587;-83
2022/03/30 09:32:46;;;;;;;22.20;14.70;;;;;;;;;;4892554;29;20446;-82
2022/03/30 09:35:25;;;;;;;16.50;14.10;;;;;;;;;;4895634;29;20508;-82
2022/03/30 09:38:08;;;;;;;21.33;14.70;;;;;;;;;;4900334;29;20432;-80
2022/03/30 09:40:44;;;;;;;20.40;15.03;;;;;;;;;;4914223;29;21025;-82
2022/03/30 09:43:23;;;;;;;17.33;14.23;;;;;;;;;;4905954;29;20441;-82
2022/03/30 09:46:05;;;;;;;16.17;14.50;;;;;;;;;;4892872;29;20765;-84
2022/03/30 09:48:33;;;;;;;17.87;13.63;;;;;;;;;;4900882;29;20447;-82
2022/03/30 09:51:00;;;;;;;16.87;14.53;;;;;;;;;;4914558;29;20447;-81
2022/03/30 09:53:28;;;;;;;16.90;14.23;;;;;;;;;;4905154;29;20470;-81
2022/03/30 09:56:17;;;;;;;19.70;14.60;;;;;;;;;;4914700;29;20509;-82
2022/03/30 09:58:44;;;;;;;16.50;13.63;;;;;;;;;;4899242;29;20453;-83
2022/03/30 10:01:19;;;;;;;16.83;15.13;;;;;;;;;;4898633;29;21405;-81
2022/03/30 10:03:45;;;;;;;15.73;13.90;;;;;;;;;;4895875;29;20515;-81
2022/03/30 10:06:12;;;;;;;14.10;12.00;;;;;;;;;;4895004;29;20516;-82
2022/03/30 10:08:45;;;;;;;14.97;13.60;;;;;;;;;;4913326;29;20428;-80
2022/03/30 10:11:13;;;;;;;14.77;12.60;;;;;;;;;;4913082;29;20774;-82
2022/03/30 10:13:40;;;;;;;13.70;11.73;;;;;;;;;;4914309;29;20636;-82
2022/03/30 10:16:08;;;;;;;14.63;12.90;;;;;;;;;;4919057;29;20520;-82
2022/03/30 10:18:34;;;;;;;13.60;12.03;;;;;;;;;;4910945;29;20437;-82
2022/03/30 10:21:16;;;;;;;19.03;14.10;;;;;;;;;;4917589;29;20559;-82
2022/03/30 10:24:01;;;;;;;14.47;12.90;;;;;;;;;;4899905;29;20505;-82
2022/03/30 10:26:38;;;;;;;15.80;12.73;;;;;;;;;;4903418;29;20460;-84
2022/03/30 10:29:11;;;;;;;12.87;11.60;;;;;;;;;;4909145;29;20510;-83
2022/03/30 10:31:37;;;;;;;17.60;12.80;;;;;;;;;;4899175;29;21021;-83
2022/03/30 10:34:23;;;;;;;15.80;14.10;;;;;;;;;;4913196;29;20424;-84
2022/03/30 10:37:25;;;;;;;18.67;12.07;;;;;;;;;;4916293;29;20601;-84
2022/03/30 10:40:03;;;;;;;12.77;11.67;;;;;;;;;;4919587;29;20499;-84
2022/03/30 10:42:49;;;;;;;14.00;11.03;;;;;;;;;;4928560;29;20814;-83
2022/03/30 10:45:26;;;;;;;11.60;10.50;;;;;;;;;;4927207;29;20412;-84
2022/03/30 10:48:16;;;;;;;12.07;10.90;;;;;;;;;;4930275;29;20532;-83
2022/03/30 10:51:05;;;;;;;12.97;11.70;;;;;;;;;;4912556;29;20453;-84
2022/03/30 10:53:34;;;;;;;11.80;10.70;;;;;;;;;;4925572;29;20440;-84
2022/03/30 10:56:10;;;;;;;11.80;10.40;;;;;;;;;;4916767;29;20428;-81
2022/03/30 10:58:36;;;;;;;12.50;10.63;;;;;;;;;;4918196;29;20448;-87
2022/03/30 11:01:18;;;;;;;11.70;10.70;;;;;;;;;;4913527;29;20512;-81
2022/03/30 11:04:04;;;;;;;13.73;12.37;;;;;;;;;;4921615;29;20490;-86
2022/03/30 11:06:31;;;;;;;11.67;10.57;;;;;;;;;;4916367;29;20575;-83
2022/03/30 11:09:01;;;;;;;15.73;11.47;;;;;;;;;;4916901;29;20428;-82
2022/03/30 11:11:42;;;;;;;17.50;11.17;;;;;;;;;;4923305;29;20456;-85
2022/03/30 11:14:27;;;;;;;11.97;10.97;;;;;;;;;;4906274;29;20473;-85
2022/03/30 11:16:54;;;;;;;10.70;9.80;;;;;;;;;;4923642;29;20501;-85
2022/03/30 11:19:28;;;;;;;10.97;10.10;;;;;;;;;;4921650;29;20408;-87
2022/03/30 11:22:11;;;;;;;12.12;10.86;;;;;;;;;;4584818;29;10001261;-84
2022/03/30 11:24:39;;;;;;;11.50;10.33;;;;;;;;;;4911598;29;20495;-86
2022/03/30 11:27:05;;;;;;;10.60;9.73;;;;;;;;;;4920780;29;20436;-86
2022/03/30 11:29:40;;;;;;;10.80;9.90;;;;;;;;;;4917747;29;20468;-84
2022/03/30 11:32:25;;;;;;;14.17;10.37;;;;;;;;;;4923044;29;20570;-86
2022/03/30 11:34:52;;;;;;;13.40;12.30;;;;;;;;;;4896462;29;20455;-84
2022/03/30 11:37:26;;;;;;;10.87;9.40;;;;;;;;;;4927917;29;20432;-85
2022/03/30 11:40:00;;;;;;;12.77;11.57;;;;;;;;;;4915935;29;20448;-84
2022/03/30 11:42:26;;;;;;;15.10;10.43;;;;;;;;;;4916253;29;20439;-84
2022/03/30 11:47:37;;;;;;;11.90;11.03;;;;;;;;;;4911929;29;20536;-85
2022/03/30 11:50:04;;;;;;;13.13;11.87;;;;;;;;;;4911988;29;20435;-85
2022/03/30 11:52:30;;;;;;;13.10;11.70;;;;;;;;;;4896092;29;20454;-85
2022/03/30 11:54:56;;;;;;;11.97;10.87;;;;;;;;;;4916721;29;21044;-85
2022/03/30 11:57:23;;;;;;;13.27;10.53;;;;;;;;;;4911374;29;20626;-84
2022/03/30 12:00:03;;;;;;;11.47;10.40;;;;;;;;;;4910452;29;20444;-84
2022/03/30 12:02:29;;;;;;;12.43;11.23;;;;;;;;;;4896427;29;20451;-82
2022/03/30 12:04:57;;;;;;;16.63;12.30;;;;;;;;;;4907805;29;20928;-85
2022/03/30 12:07:23;;;;;;;14.17;12.30;;;;;;;;;;4909043;29;20439;-77
2022/03/30 12:09:52;;;;;;;17.10;15.43;;;;;;;;;;4906990;29;20413;-85
2022/03/30 12:12:27;;;;;;;18.87;15.43;;;;;;;;;;4907073;29;20516;-85
2022/03/30 12:14:57;;;;;;;11.80;10.80;;;;;;;;;;4909457;29;20455;-83
2022/03/30 12:17:24;;;;;;;14.43;12.87;;;;;;;;;;4895100;29;20447;-84
2022/03/30 12:19:51;;;;;;;13.80;11.90;;;;;;;;;;4922396;29;20863;-84
2022/03/30 12:22:18;;;;;;;13.00;11.60;;;;;;;;;;4916965;29;20463;-83
2022/03/30 12:24:44;;;;;;;13.10;11.30;;;;;;;;;;4919769;29;20451;-84
2022/03/30 12:27:10;;;;;;;12.37;11.17;;;;;;;;;;4906413;29;20436;-84
2022/03/30 12:29:37;;;;;;;15.17;11.27;;;;;;;;;;4911368;29;20478;-83
2022/03/30 12:32:03;;;;;;;11.93;10.93;;;;;;;;;;4908262;29;20959;-83
2022/03/30 12:34:34;;;;;;;13.57;11.97;;;;;;;;;;4906455;29;20424;-85
2022/03/30 12:37:07;;;;;;;12.00;11.00;;;;;;;;;;4914636;29;20536;-85
2022/03/30 12:39:41;;;;;;;12.83;11.20;;;;;;;;;;4911570;29;20508;-85
2022/03/30 12:42:12;;;;;;;14.93;13.53;;;;;;;;;;4919463;29;20499;-85
2022/03/30 12:44:46;;;;;;;12.73;11.70;;;;;;;;;;4933475;29;20459;-87
2022/03/30 12:47:17;;;;;;;12.27;11.17;;;;;;;;;;4915952;29;20535;-83
2022/03/30 12:49:43;;;;;;;12.70;11.50;;;;;;;;;;4901199;29;20448;-85
2022/03/30 12:52:11;;;;;;;16.53;12.70;;;;;;;;;;4923354;29;20487;-86
2022/03/30 12:54:38;;;;;;;14.60;13.10;;;;;;;;;;4911959;29;20521;-83
2022/03/30 12:57:13;;;;;;;11.87;10.97;;;;;;;;;;5005637;23;20492;-87
2022/03/30 12:59:41;;;;;;;11.90;10.80;;;;;;;;;;4906131;29;20522;-82
2022/03/30 13:02:27;;;;;;;12.63;10.77;;;;;;;;;;4886727;29;20532;-82
2022/03/30 13:04:54;;;;;;;12.77;11.48;;;;;;;;;;4561696;29;9999873;-84
2022/03/30 13:07:25;;;;;;;12.03;10.77;;;;;;;;;;4897176;29;20212;-84
2022/03/30 13:10:07;;;;;;;12.53;11.30;;;;;;;;;;4897776;29;20451;-84
2022/03/30 13:12:40;;;;;;;12.97;11.67;;;;;;;;;;4899132;29;20475;-86
2022/03/30 13:15:10;;;;;;;12.10;10.97;;;;;;;;;;4902035;29;20452;-86
2022/03/30 13:17:55;;;;;;;12.13;11.10;;;;;;;;;;4882243;29;20444;-85
2022/03/30 13:20:21;;;;;;;12.67;11.47;;;;;;;;;;4882343;29;20500;-85
2022/03/30 13:22:56;;;;;;;13.30;12.13;;;;;;;;;;4900407;29;20492;-85
2022/03/30 13:25:27;;;;;;;13.47;11.63;;;;;;;;;;4879490;29;20655;-86
2022/03/30 13:27:56;;;;;;;24.23;16.27;;;;;;;;;;4879491;29;20821;-84
2022/03/30 13:30:26;;;;;;;12.67;11.37;;;;;;;;;;4896344;29;20476;-85
2022/03/30 13:32:57;;;;;;;14.03;11.87;;;;;;;;;;4883498;29;20456;-82
2022/03/30 13:35:23;;;;;;;12.70;11.00;;;;;;;;;;4898795;29;21049;-84
2022/03/30 13:37:53;;;;;;;13.17;11.87;;;;;;;;;;4882086;29;20456;-84
2022/03/30 13:40:21;;;;;;;11.40;10.40;;;;;;;;;;4881248;29;20468;-85
2022/03/30 13:42:47;;;;;;;12.00;11.00;;;;;;;;;;4880064;29;20611;-81
2022/03/30 13:45:14;;;;;;;12.20;11.03;;;;;;;;;;4880055;29;20437;-84
2022/03/30 13:47:41;;;;;;;16.80;11.10;;;;;;;;;;4900759;29;20791;-85
2022/03/30 13:50:08;;;;;;;13.67;12.13;;;;;;;;;;4887709;29;20455;-84
2022/03/30 13:52:39;;;;;;;13.30;11.93;;;;;;;;;;4889902;29;20512;-84
2022/03/30 13:55:26;;;;;;;12.60;11.57;;;;;;;;;;4904957;29;20433;-86
2022/03/30 13:57:53;;;;;;;11.17;9.97;;;;;;;;;;4881601;29;20536;-85
2022/03/30 14:00:19;;;;;;;11.20;10.20;;;;;;;;;;4887125;29;20431;-85
2022/03/30 14:02:44;;;;;;;12.17;10.90;;;;;;;;;;4887196;29;20886;-82
2022/03/30 14:05:11;;;;;;;11.53;10.50;;;;;;;;;;4907131;29;20453;-83
2022/03/30 14:07:37;;;;;;;12.10;11.00;;;;;;;;;;4894859;29;20447;-86
2022/03/30 14:10:03;;;;;;;12.17;11.17;;;;;;;;;;4888318;29;20467;-85
2022/03/30 14:12:31;;;;;;;11.63;10.53;;;;;;;;;;4903961;29;20441;-83
2022/03/30 14:14:57;;;;;;;12.47;10.60;;;;;;;;;;4904266;29;20984;-85
2022/03/30 14:17:23;;;;;;;15.27;11.53;;;;;;;;;;4903449;29;20788;-85
2022/03/30 14:19:49;;;;;;;15.27;11.90;;;;;;;;;;4904507;29;21119;-85
2022/03/30 14:22:16;;;;;;;11.20;10.23;;;;;;;;;;4900359;29;20441;-83
2022/03/30 14:24:42;;;;;;;12.53;11.30;;;;;;;;;;4904437;29;20947;-83
2022/03/30 14:27:08;;;;;;;13.37;12.07;;;;;;;;;;4897445;29;20959;-85
2022/03/30 14:29:35;;;;;;;12.47;10.87;;;;;;;;;;4896896;29;20469;-84
2022/03/30 14:32:01;;;;;;;11.70;10.40;;;;;;;;;;4896909;29;20487;-84
2022/03/30 14:34:27;;;;;;;13.50;11.20;;;;;;;;;;4898472;29;20425;-85
2022/03/30 14:36:54;;;;;;;12.77;11.57;;;;;;;;;;4897214;29;20459;-81
2022/03/30 14:39:20;;;;;;;11.27;10.13;;;;;;;;;;4903133;29;20428;-85
2022/03/30 14:41:46;;;;;;;12.00;10.90;;;;;;;;;;4885663;29;20448;-85
2022/03/30 14:44:12;;;;;;;14.23;12.60;;;;;;;;;;4885430;29;20504;-84
2022/03/30 14:46:39;;;;;;;10.40;9.17;;;;;;;;;;4891527;29;20477;-86
2022/03/30 14:49:05;;;;;;;12.63;9.80;;;;;;;;;;4906054;29;20531;-85